EBBR/BRU METAR and TAF weather

Enter ICAO airport designator
Station Type Date Time Source
EBBR METAR 2021/07/28 18:50 UTC NOAA

EBBR 281850Z 22009KT 9999 -SHRA FEW040TCU 18/12 Q1011 NOSIG


Station Type Date Time Source
EBBR Decoded METAR 2021/07/28 18:50 UTC NOAA

Bruxelles National, Belgium (EBBR) 50-54N 004-32E 58M
Jul 28, 2021 - 02:50 PM EDT / 2021.07.28 1850 UTC
Wind: from the SW (220 degrees) at 10 MPH (9 KT):0
Visibility: greater than 7 mile(s):0
Sky conditions: mostly clear
Weather: light rain showers; Towering cumulus clouds observed
Temperature: 64 F (18 C)
Dew Point: 53 F (12 C)
Relative Humidity: 67%
Pressure (altimeter): 29.85 in. Hg (1011 hPa)
ob: EBBR 281850Z 22009KT 9999 -SHRA FEW040TCU 18/12 Q1011 NOSIG
cycle: 19

Station Type Date Time Source
EBBR TAF 2021/07/28 18:27 UTC NOAA

TAF TAF EBBR 281700Z 2818/2924 21012KT 9999 SCT025TCU SCT040 PROB30
TEMPO 2818/2820 21015G25KT SHRA
TEMPO 2910/2916 23015G25KT

Example: see airport list